Dnes je 23. srpna 2019

6:04 20:06

U Biškeku spadl Boeing 747 při pokusu o průlet, 31 mrtvých

16. 1. 2017

Prozatím 31 obětí má na svědomí ranní nehoda nákladního Boeingu 747-400 společnosti MyCargo v Kyrgyzstánu. Stroj registrace TC-MCL zajišťující let pro Turkish Airlines z Hong Kongu do Istanbulu měl v metropoli Biškeku nabrat palivo na další pokračování cesty. Letoun se čtyřmi členy posádky na palubě během konečného přiblížení zahájil průlet, nenastoupal ovšem do bezpečné výšky a spadl do obydlené oblasti asi kilometr za letištěm. Nikdo z posádky podle zpráv kyrgyzského ministra zdravotnictví nehodu nepřežil, pád stroje mezi domy navíc zapříčinil smrt dalších 28 obyvatel na zemi.


Foto Aviation Herald

O možných příčinách nehody je zatím však možné pouze spekulovat. METARy z místa a času události naznačují bezvětří, namrzající mlhu a velmi špatnou dohlednost. Nic z toho by však nemělo za standardní situace zprovodit letoun z oblohy. Vyšetřování nehody se již ujal Mezistátní letecký výbor (MAK/IAC).

METARy letiště Manas v době nehody

UCFM 160130Z VRB01MPS 0150 R26/0550 FZFG VV001 M09/M10 Q1024 R26/19//60 NOSIG
UCFM 160100Z VRB01MPS 0050 R26/0300N FZFG VV001 M09/M10 Q1023 R26/19//60 NOSIG

Mohlo by vás zajímat


Zkušenosti a doplnění našich čtenářů

Přidat komentář